Wetterdaten: Woche 18.05.09 - 24.05.09 (KW21)
Datum Zeit Temp. Innen Temp. Aussen Feuchte Inne Feuchte Auss Luftdruck Regen ab 0,1 Wind
18.05.2009 00:00 20,4 C 13,5 C 52 % 69 % 1015,2 hPa 0,0 l/m 0,0 km/h (0 Bft)
18.05.2009 01:00 20,3 C 12,9 C 52 % 72 % 1015,4 hPa 0,0 l/m 0,0 km/h (0 Bft)
18.05.2009 02:00 20,2 C 11,9 C 53 % 74 % 1015,4 hPa 0,0 l/m 0,0 km/h (0 Bft)
18.05.2009 03:00 20,1 C 11,3 C 53 % 77 % 1016,1 hPa 0,0 l/m 0,0 km/h (0 Bft)
18.05.2009 04:00 20,0 C 11,3 C 53 % 78 % 1016,4 hPa 0,0 l/m 0,0 km/h (0 Bft)
18.05.2009 05:00 19,9 C 11,0 C 53 % 79 % 1016,1 hPa 0,0 l/m 0,0 km/h (0 Bft)
18.05.2009 06:00 19,8 C 10,7 C 53 % 80 % 1016,4 hPa 0,0 l/m 0,0 km/h (0 Bft)
18.05.2009 07:00 19,8 C 11,3 C 53 % 79 % 1016,4 hPa 0,0 l/m 0,0 km/h (0 Bft)
18.05.2009 08:00 19,7 C 12,7 C 53 % 75 % 1016,6 hPa 0,0 l/m 1,7 km/h (1 Bft)
18.05.2009 09:00 19,6 C 14,0 C 52 % 69 % 1017,3 hPa 0,0 l/m 1,6 km/h (1 Bft)
18.05.2009 10:00 19,6 C 15,3 C 52 % 65 % 1017,3 hPa 0,0 l/m 1,4 km/h (1 Bft)
18.05.2009 11:00 19,6 C 17,0 C 52 % 58 % 1017,3 hPa 0,0 l/m 3,3 km/h (1 Bft)
18.05.2009 12:00 19,7 C 17,0 C 51 % 56 % 1017,7 hPa 0,0 l/m 3,2 km/h (1 Bft)
18.05.2009 13:00 19,7 C 18,0 C 51 % 54 % 1018,3 hPa 0,0 l/m 3,7 km/h (1 Bft)
18.05.2009 14:00 19,8 C 18,3 C 51 % 53 % 1018,3 hPa 0,0 l/m 3,7 km/h (1 Bft)
18.05.2009 15:00 20,0 C 19,3 C 51 % 48 % 1018,3 hPa 0,0 l/m 6,1 km/h (2 Bft)
18.05.2009 16:00 20,3 C 20,1 C 50 % 45 % 1018,3 hPa 0,0 l/m 7,2 km/h (2 Bft)
18.05.2009 17:00 20,6 C 20,7 C 49 % 43 % 1018,3 hPa 0,0 l/m 5,3 km/h (1 Bft)
18.05.2009 18:00 20,7 C 19,8 C 49 % 44 % 1018,3 hPa 0,0 l/m 4,9 km/h (1 Bft)
18.05.2009 19:00 20,7 C 18,6 C 49 % 46 % 1018,3 hPa 0,0 l/m 1,2 km/h (1 Bft)
18.05.2009 20:00 20,7 C 17,2 C 49 % 50 % 1018,3 hPa 0,0 l/m 0,0 km/h (0 Bft)
18.05.2009 21:00 20,8 C 15,7 C 49 % 54 % 1019,3 hPa 0,0 l/m 0,0 km/h (0 Bft)
18.05.2009 22:00 20,7 C 13,9 C 49 % 59 % 1019,4 hPa 0,0 l/m 0,0 km/h (0 Bft)
18.05.2009 23:00 20,7 C 12,0 C 49 % 65 % 1019,8 hPa 0,0 l/m 0,0 km/h (0 Bft)
19.05.2009 00:00 20,6 C 11,0 C 49 % 69 % 1020,4 hPa 0,0 l/m 0,0 km/h (0 Bft)
19.05.2009 01:00 20,5 C 10,9 C 49 % 70 % 1020,4 hPa 0,0 l/m 0,0 km/h (0 Bft)
19.05.2009 02:00 20,4 C 10,1 C 50 % 72 % 1020,4 hPa 0,0 l/m 0,0 km/h (0 Bft)
19.05.2009 03:00 20,3 C 10,0 C 50 % 74 % 1020,4 hPa 0,0 l/m 0,0 km/h (0 Bft)
19.05.2009 04:00 20,1 C 10,1 C 50 % 74 % 1020,4 hPa 0,0 l/m 0,0 km/h (0 Bft)
19.05.2009 05:00 20,0 C 9,6 C 50 % 76 % 1020,4 hPa 0,0 l/m 0,0 km/h (0 Bft)
19.05.2009 06:00 19,9 C 9,0 C 50 % 77 % 1020,4 hPa 0,0 l/m 0,0 km/h (0 Bft)
19.05.2009 07:00 19,8 C 9,4 C 50 % 79 % 1020,9 hPa 0,0 l/m 0,0 km/h (0 Bft)
19.05.2009 08:00 19,7 C 10,9 C 51 % 79 % 1021,3 hPa 0,0 l/m 0,0 km/h (0 Bft)
19.05.2009 09:00 19,7 C 13,1 C 51 % 76 % 1021,3 hPa 0,0 l/m 0,1 km/h (0 Bft)
19.05.2009 10:00 19,7 C 16,5 C 51 % 70 % 1020,5 hPa 0,0 l/m 4,0 km/h (1 Bft)
19.05.2009 11:00 19,8 C 19,7 C 52 % 60 % 1020,3 hPa 0,0 l/m 9,2 km/h (2 Bft)
19.05.2009 12:00 19,8 C 21,5 C 51 % 51 % 1020,2 hPa 0,0 l/m 4,9 km/h (1 Bft)
19.05.2009 13:00 19,9 C 21,8 C 51 % 49 % 1019,6 hPa 0,0 l/m 2,0 km/h (1 Bft)
19.05.2009 14:00 20,0 C 22,8 C 51 % 47 % 1019,2 hPa 0,0 l/m 4,7 km/h (1 Bft)
19.05.2009 15:00 20,2 C 23,8 C 51 % 44 % 1019,0 hPa 0,0 l/m 0,1 km/h (0 Bft)
19.05.2009 16:00 20,5 C 24,5 C 51 % 43 % 1018,2 hPa 0,0 l/m 0,6 km/h (0 Bft)
19.05.2009 17:00 20,7 C 24,1 C 50 % 42 % 1018,2 hPa 0,0 l/m 1,2 km/h (1 Bft)
19.05.2009 18:00 20,8 C 21,1 C 51 % 52 % 1018,3 hPa 0,0 l/m 0,2 km/h (0 Bft)
19.05.2009 19:00 20,9 C 19,2 C 51 % 59 % 1018,6 hPa 0,5 l/m 1,6 km/h (1 Bft)
19.05.2009 20:00 21,0 C 17,1 C 52 % 68 % 1019,3 hPa 0,0 l/m 0,0 km/h (0 Bft)
19.05.2009 21:00 21,0 C 15,6 C 52 % 71 % 1019,3 hPa 0,0 l/m 0,1 km/h (0 Bft)
19.05.2009 22:00 21,0 C 14,9 C 53 % 72 % 1020,0 hPa 0,0 l/m 0,0 km/h (0 Bft)
19.05.2009 23:00 21,0 C 14,5 C 53 % 75 % 1020,4 hPa 0,0 l/m 0,0 km/h (0 Bft)
20.05.2009 00:00 20,9 C 13,9 C 54 % 77 % 1020,4 hPa 0,0 l/m 0,0 km/h (0 Bft)
20.05.2009 01:00 20,9 C 13,5 C 54 % 78 % 1020,4 hPa 0,0 l/m 0,0 km/h (0 Bft)
20.05.2009 02:00 20,8 C 12,9 C 55 % 79 % 1020,4 hPa 0,0 l/m 0,0 km/h (0 Bft)
20.05.2009 03:00 20,7 C 12,4 C 55 % 81 % 1020,4 hPa 0,0 l/m 0,0 km/h (0 Bft)
20.05.2009 04:00 20,6 C 11,9 C 55 % 81 % 1020,4 hPa 0,0 l/m 0,0 km/h (0 Bft)
20.05.2009 05:00 20,5 C 11,4 C 55 % 82 % 1020,6 hPa 0,0 l/m 0,0 km/h (0 Bft)
20.05.2009 06:00 20,4 C 10,9 C 55 % 83 % 1021,4 hPa 0,0 l/m 0,0 km/h (0 Bft)
20.05.2009 07:00 20,3 C 11,0 C 55 % 83 % 1021,4 hPa 0,0 l/m 0,0 km/h (0 Bft)
20.05.2009 08:00 20,2 C 12,0 C 55 % 84 % 1022,1 hPa 0,0 l/m 0,0 km/h (0 Bft)
20.05.2009 09:00 20,2 C 14,1 C 55 % 79 % 1022,4 hPa 0,0 l/m 0,0 km/h (0 Bft)
20.05.2009 10:00 20,2 C 16,1 C 54 % 71 % 1022,3 hPa 0,0 l/m 4,4 km/h (1 Bft)
20.05.2009 11:00 20,2 C 18,4 C 54 % 65 % 1021,4 hPa 0,0 l/m 10,9 km/h (2 Bft)
20.05.2009 12:00 20,2 C 20,0 C 54 % 58 % 1021,3 hPa 0,0 l/m 5,1 km/h (1 Bft)
20.05.2009 13:00 20,3 C 21,9 C 54 % 52 % 1020,5 hPa 0,0 l/m 0,9 km/h (0 Bft)
20.05.2009 14:00 20,4 C 23,4 C 54 % 48 % 1020,2 hPa 0,0 l/m 0,0 km/h (0 Bft)
20.05.2009 15:00 20,6 C 24,0 C 54 % 45 % 1019,4 hPa 0,0 l/m 0,0 km/h (0 Bft)
20.05.2009 16:00 20,9 C 24,9 C 53 % 43 % 1018,4 hPa 0,0 l/m 1,7 km/h (1 Bft)
20.05.2009 17:00 21,1 C 24,0 C 52 % 44 % 1018,2 hPa 0,0 l/m 0,0 km/h (0 Bft)
20.05.2009 18:00 21,2 C 23,1 C 52 % 45 % 1018,1 hPa 0,0 l/m 3,5 km/h (1 Bft)
20.05.2009 19:00 21,3 C 21,7 C 52 % 47 % 1017,2 hPa 0,0 l/m 1,9 km/h (1 Bft)
20.05.2009 20:00 21,4 C 20,7 C 52 % 50 % 1017,2 hPa 0,0 l/m 0,0 km/h (0 Bft)
20.05.2009 21:00 21,4 C 19,3 C 51 % 53 % 1017,3 hPa 0,0 l/m 0,0 km/h (0 Bft)
20.05.2009 22:00 21,4 C 17,7 C 51 % 56 % 1017,3 hPa 0,0 l/m 0,0 km/h (0 Bft)
20.05.2009 23:00 21,4 C 16,0 C 51 % 61 % 1016,9 hPa 0,0 l/m 0,0 km/h (0 Bft)
21.05.2009 00:00 21,4 C 14,5 C 52 % 65 % 1016,3 hPa 0,0 l/m 0,0 km/h (0 Bft)
21.05.2009 01:00 21,3 C 13,4 C 52 % 68 % 1015,8 hPa 0,0 l/m 0,0 km/h (0 Bft)
21.05.2009 02:00 21,2 C 12,8 C 52 % 71 % 1015,2 hPa 0,0 l/m 0,0 km/h (0 Bft)
21.05.2009 03:00 21,1 C 12,6 C 52 % 72 % 1014,4 hPa 0,0 l/m 0,0 km/h (0 Bft)
21.05.2009 04:00 21,0 C 12,4 C 53 % 74 % 1014,1 hPa 0,0 l/m 0,0 km/h (0 Bft)
21.05.2009 05:00 21,0 C 12,3 C 53 % 75 % 1013,4 hPa 0,0 l/m 0,0 km/h (0 Bft)
21.05.2009 06:00 20,8 C 11,9 C 53 % 76 % 1013,4 hPa 0,0 l/m 0,0 km/h (0 Bft)
21.05.2009 07:00 20,8 C 12,4 C 54 % 78 % 1013,4 hPa 0,0 l/m 0,0 km/h (0 Bft)
21.05.2009 08:00 20,7 C 13,8 C 54 % 78 % 1013,1 hPa 0,0 l/m 0,0 km/h (0 Bft)
21.05.2009 09:00 20,7 C 15,8 C 54 % 76 % 1013,2 hPa 0,0 l/m 0,0 km/h (0 Bft)
21.05.2009 10:00 20,7 C 17,8 C 54 % 70 % 1012,6 hPa 0,0 l/m 0,9 km/h (0 Bft)
21.05.2009 11:00 20,7 C 19,6 C 54 % 64 % 1012,2 hPa 0,0 l/m 3,8 km/h (1 Bft)
21.05.2009 12:00 20,8 C 21,5 C 54 % 58 % 1012,2 hPa 0,0 l/m 7,0 km/h (2 Bft)
21.05.2009 13:00 20,8 C 22,9 C 54 % 53 % 1012,2 hPa 0,0 l/m 1,7 km/h (1 Bft)
21.05.2009 14:00 20,9 C 24,1 C 54 % 46 % 1012,2 hPa 0,0 l/m 1,9 km/h (1 Bft)
21.05.2009 15:00 21,1 C 24,1 C 53 % 44 % 1012,1 hPa 0,0 l/m 8,2 km/h (2 Bft)
21.05.2009 16:00 21,2 C 23,8 C 53 % 45 % 1011,6 hPa 0,0 l/m 3,3 km/h (1 Bft)
21.05.2009 17:00 21,3 C 22,7 C 53 % 48 % 1011,2 hPa 0,0 l/m 1,8 km/h (1 Bft)
21.05.2009 18:00 21,5 C 21,5 C 53 % 48 % 1011,2 hPa 0,0 l/m 2,0 km/h (1 Bft)
21.05.2009 19:00 21,5 C 19,2 C 52 % 47 % 1012,2 hPa 0,0 l/m 0,7 km/h (0 Bft)
21.05.2009 20:00 21,6 C 18,2 C 51 % 51 % 1012,3 hPa 0,0 l/m 2,7 km/h (1 Bft)
21.05.2009 21:00 21,6 C 17,2 C 50 % 51 % 1013,0 hPa 0,0 l/m 0,0 km/h (0 Bft)
21.05.2009 22:00 21,5 C 16,2 C 50 % 52 % 1013,3 hPa 0,0 l/m 0,0 km/h (0 Bft)
21.05.2009 23:00 21,4 C 15,1 C 49 % 54 % 1013,3 hPa 0,0 l/m 0,0 km/h (0 Bft)
22.05.2009 00:00 21,4 C 13,5 C 49 % 58 % 1013,6 hPa 0,0 l/m 0,0 km/h (0 Bft)
22.05.2009 01:00 21,2 C 11,7 C 49 % 63 % 1013,6 hPa 0,0 l/m 0,0 km/h (0 Bft)
22.05.2009 02:00 21,1 C 10,4 C 49 % 66 % 1013,4 hPa 0,0 l/m 0,0 km/h (0 Bft)
22.05.2009 03:00 21,0 C 9,4 C 49 % 69 % 1013,4 hPa 0,0 l/m 0,0 km/h (0 Bft)
22.05.2009 04:00 20,8 C 8,9 C 49 % 72 % 1013,4 hPa 0,0 l/m 0,0 km/h (0 Bft)
22.05.2009 05:00 20,7 C 8,4 C 49 % 74 % 1013,4 hPa 0,0 l/m 0,0 km/h (0 Bft)
22.05.2009 06:00 20,6 C 8,4 C 49 % 76 % 1013,7 hPa 0,0 l/m 0,0 km/h (0 Bft)
22.05.2009 07:00 20,5 C 9,2 C 49 % 77 % 1014,2 hPa 0,0 l/m 0,0 km/h (0 Bft)
22.05.2009 08:00 20,4 C 11,1 C 50 % 78 % 1014,4 hPa 0,0 l/m 0,0 km/h (0 Bft)
22.05.2009 09:00 20,4 C 13,7 C 51 % 73 % 1014,3 hPa 0,0 l/m 1,1 km/h (1 Bft)
22.05.2009 10:00 20,4 C 15,8 C 51 % 66 % 1014,3 hPa 0,0 l/m 1,3 km/h (1 Bft)
22.05.2009 11:00 20,4 C 18,0 C 51 % 59 % 1014,8 hPa 0,0 l/m 4,1 km/h (1 Bft)
22.05.2009 12:00 20,4 C 19,3 C 51 % 49 % 1014,6 hPa 0,0 l/m 8,0 km/h (2 Bft)
22.05.2009 13:00 20,4 C 18,8 C 51 % 52 % 1015,3 hPa 0,0 l/m 4,6 km/h (1 Bft)
22.05.2009 14:00 20,5 C 19,7 C 50 % 47 % 1015,3 hPa 0,0 l/m 5,3 km/h (1 Bft)
22.05.2009 15:00 20,6 C 20,4 C 50 % 44 % 1015,3 hPa 0,0 l/m 4,8 km/h (1 Bft)
22.05.2009 16:00 20,8 C 20,1 C 48 % 43 % 1016,2 hPa 0,0 l/m 4,6 km/h (1 Bft)
22.05.2009 17:00 21,1 C 20,6 C 48 % 40 % 1016,2 hPa 0,0 l/m 8,2 km/h (2 Bft)
22.05.2009 18:00 21,2 C 19,9 C 47 % 38 % 1016,3 hPa 0,0 l/m 1,9 km/h (1 Bft)
22.05.2009 19:00 21,2 C 18,6 C 47 % 40 % 1017,1 hPa 0,0 l/m 1,4 km/h (1 Bft)
22.05.2009 20:00 21,2 C 17,5 C 46 % 42 % 1017,3 hPa 0,0 l/m 0,9 km/h (0 Bft)
22.05.2009 21:00 21,2 C 15,7 C 46 % 47 % 1018,0 hPa 0,0 l/m 0,0 km/h (0 Bft)
22.05.2009 22:00 21,2 C 13,7 C 46 % 52 % 1018,5 hPa 0,0 l/m 0,0 km/h (0 Bft)
22.05.2009 23:00 21,2 C 11,9 C 46 % 57 % 1019,4 hPa 0,0 l/m 0,0 km/h (0 Bft)
23.05.2009 00:00 21,0 C 10,5 C 47 % 63 % 1019,4 hPa 0,0 l/m 0,0 km/h (0 Bft)
23.05.2009 01:00 20,9 C 9,3 C 47 % 66 % 1019,4 hPa 0,0 l/m 0,0 km/h (0 Bft)
23.05.2009 02:00 20,8 C 8,4 C 47 % 70 % 1019,6 hPa 0,0 l/m 0,0 km/h (0 Bft)
23.05.2009 03:00 20,6 C 7,7 C 47 % 72 % 1019,7 hPa 0,0 l/m 0,0 km/h (0 Bft)
23.05.2009 04:00 20,5 C 7,1 C 47 % 74 % 1019,5 hPa 0,0 l/m 0,0 km/h (0 Bft)
23.05.2009 05:00 20,3 C 6,5 C 47 % 75 % 1020,5 hPa 0,0 l/m 0,0 km/h (0 Bft)
23.05.2009 06:00 20,2 C 6,3 C 47 % 77 % 1020,5 hPa 0,0 l/m 0,0 km/h (0 Bft)
23.05.2009 07:00 20,0 C 7,2 C 47 % 78 % 1020,5 hPa 0,0 l/m 0,0 km/h (0 Bft)
23.05.2009 08:00 20,0 C 9,5 C 48 % 78 % 1020,4 hPa 0,0 l/m 0,0 km/h (0 Bft)
23.05.2009 09:00 20,0 C 12,6 C 48 % 72 % 1020,4 hPa 0,0 l/m 0,0 km/h (0 Bft)
23.05.2009 10:00 20,0 C 15,9 C 49 % 63 % 1020,3 hPa 0,0 l/m 1,3 km/h (1 Bft)
23.05.2009 11:00 20,0 C 19,1 C 49 % 54 % 1019,3 hPa 0,0 l/m 9,8 km/h (2 Bft)
23.05.2009 12:00 20,0 C 21,4 C 49 % 48 % 1019,2 hPa 0,0 l/m 1,8 km/h (1 Bft)
23.05.2009 13:00 20,1 C 23,0 C 49 % 44 % 1019,2 hPa 0,0 l/m 0,1 km/h (0 Bft)
23.05.2009 14:00 20,2 C 24,4 C 49 % 41 % 1018,6 hPa 0,0 l/m 0,2 km/h (0 Bft)
23.05.2009 15:00 20,5 C 25,5 C 48 % 39 % 1018,2 hPa 0,0 l/m 0,1 km/h (0 Bft)
23.05.2009 16:00 20,8 C 26,2 C 48 % 37 % 1018,2 hPa 0,0 l/m 0,0 km/h (0 Bft)
23.05.2009 17:00 21,1 C 25,7 C 48 % 37 % 1017,3 hPa 0,0 l/m 0,7 km/h (0 Bft)
23.05.2009 18:00 21,2 C 24,0 C 48 % 39 % 1016,3 hPa 0,0 l/m 0,8 km/h (0 Bft)
23.05.2009 19:00 21,3 C 22,4 C 48 % 42 % 1015,1 hPa 0,0 l/m 0,0 km/h (0 Bft)
23.05.2009 20:00 21,4 C 21,2 C 48 % 46 % 1015,8 hPa 0,0 l/m 0,0 km/h (0 Bft)
23.05.2009 21:00 21,5 C 19,9 C 48 % 50 % 1016,4 hPa 0,0 l/m 0,0 km/h (0 Bft)
23.05.2009 22:00 21,6 C 19,1 C 48 % 54 % 1017,1 hPa 0,0 l/m 0,0 km/h (0 Bft)
23.05.2009 23:00 21,6 C 18,4 C 49 % 57 % 1017,3 hPa 0,0 l/m 0,0 km/h (0 Bft)
24.05.2009 00:00 21,6 C 17,7 C 49 % 61 % 1016,7 hPa 0,0 l/m 0,0 km/h (0 Bft)
24.05.2009 01:00 21,6 C 16,8 C 50 % 65 % 1016,3 hPa 0,0 l/m 0,0 km/h (0 Bft)
24.05.2009 02:00 21,5 C 16,1 C 50 % 67 % 1015,4 hPa 0,0 l/m 0,0 km/h (0 Bft)
24.05.2009 03:00 21,5 C 14,9 C 51 % 72 % 1015,7 hPa 0,0 l/m 0,0 km/h (0 Bft)
24.05.2009 04:00 21,4 C 13,7 C 52 % 74 % 1016,3 hPa 0,0 l/m 0,0 km/h (0 Bft)
24.05.2009 05:00 21,3 C 12,7 C 52 % 76 % 1016,4 hPa 0,0 l/m 0,0 km/h (0 Bft)
24.05.2009 06:00 21,2 C 12,0 C 53 % 77 % 1016,4 hPa 0,0 l/m 0,0 km/h (0 Bft)
24.05.2009 07:00 21,1 C 12,5 C 53 % 79 % 1016,9 hPa 0,0 l/m 0,0 km/h (0 Bft)
24.05.2009 08:00 21,1 C 14,1 C 53 % 80 % 1017,3 hPa 0,0 l/m 0,0 km/h (0 Bft)
24.05.2009 09:00 21,0 C 16,7 C 53 % 75 % 1017,5 hPa 0,0 l/m 0,5 km/h (0 Bft)
24.05.2009 10:00 21,0 C 20,0 C 53 % 62 % 1018,3 hPa 0,0 l/m 3,0 km/h (1 Bft)
24.05.2009 11:00 21,0 C 22,2 C 53 % 55 % 1018,2 hPa 0,0 l/m 0,0 km/h (0 Bft)
24.05.2009 12:00 21,0 C 24,0 C 53 % 50 % 1018,2 hPa 0,0 l/m 0,1 km/h (0 Bft)
24.05.2009 13:00 21,0 C 25,7 C 53 % 46 % 1018,2 hPa 0,0 l/m 0,9 km/h (0 Bft)
24.05.2009 14:00 21,2 C 26,5 C 53 % 44 % 1018,2 hPa 0,0 l/m 0,6 km/h (0 Bft)
24.05.2009 15:00 21,4 C 27,5 C 53 % 42 % 1018,2 hPa 0,0 l/m 0,5 km/h (0 Bft)
24.05.2009 16:00 21,7 C 27,8 C 52 % 40 % 1018,2 hPa 0,0 l/m 0,6 km/h (0 Bft)
24.05.2009 17:00 22,0 C 27,4 C 52 % 40 % 1018,2 hPa 0,0 l/m 0,2 km/h (0 Bft)
24.05.2009 18:00 22,1 C 25,9 C 51 % 41 % 1018,2 hPa 0,0 l/m 4,6 km/h (1 Bft)
24.05.2009 19:00 22,2 C 24,5 C 51 % 44 % 1018,2 hPa 0,0 l/m 4,2 km/h (1 Bft)
24.05.2009 20:00 22,4 C 23,4 C 51 % 45 % 1018,2 hPa 0,0 l/m 1,4 km/h (1 Bft)
24.05.2009 21:00 22,6 C 21,9 C 50 % 47 % 1018,2 hPa 0,0 l/m 0,0 km/h (0 Bft)
24.05.2009 22:00 22,7 C 20,0 C 50 % 51 % 1019,2 hPa 0,0 l/m 0,0 km/h (0 Bft)
24.05.2009 23:00 22,6 C 18,5 C 50 % 55 % 1019,3 hPa 0,0 l/m 0,0 km/h (0 Bft)
Min-Datum _ 18.05.09 23.05.09 22.05.09 23.05.09 21.05.09 - 18.05.09
_ Min-Zeit 09:10 05:56 20:38 16:16 14:38 - 00:00
Minimum _ 19,6 C 6,2 C 45 % 36 % 1011,2 hPa - 0,0 km/h (0 Bft)
Max-Datum _ 24.05.09 24.05.09 20.05.09 20.05.09 20.05.09 19.05.09 19.05.09
_ Max-Zeit 21:22 16:52 01:48 08:08 08:18 19:56 14:20
Maximum _ 22,7 C 28,0 C 55 % 84 % 1022,4 hPa 0,5 l/m 50,6 km/h
O-SO (7 Bft)
Durchschnitt _ 20,8 C 16,7 C 51 % 61 % 1017,4 hPa #0,5 l/m 1,3 km/h (1 Bft)
© 2012 W. Hausmann